Aktuelles Wetter in Potsdam (Telegrafenberg, 81m)

Tag Datum Stunde Luftdruck Temperatur Luftfeuchte Niederschlag Windrichtung Windgeschw. Windspitzen Wolken
hPa °C % mm ° km/h km/h
Sonntag, 19.11.2017, 17:30 1006.6 5.1 94 0.2 W 28 48 Regenschauer
Sonntag, 19.11.2017, 17:00 1006.5 4.9 97 1.4 W 29 49 Regenschauer
Sonntag, 19.11.2017, 16:30 1006.6 5.0 93 0.1 W 27 48 Regenschauer
Sonntag, 19.11.2017, 16:00 1006.3 5.4 86 0.1 W 31 59 Regenschauer
Sonntag, 19.11.2017, 15:30 1006.1 5.5 89 0.1 W 32 59 Regenschauer
Sonntag, 19.11.2017, 15:00 1006.1 5.4 90 0.1 W 30 59 Regenschauer
Sonntag, 19.11.2017, 14:30 1006.0 5.2 90 0.1 W 34 59 ---
Sonntag, 19.11.2017, 14:00 1005.9 5.4 87 0.0 W 35 62 Regenschauer
Sonntag, 19.11.2017, 13:30 1005.9 5.4 88 0.0 W 38 58 Regenschauer
Sonntag, 19.11.2017, 13:00 1005.9 5.2 89 0.0 W 28 55 Regen
Sonntag, 19.11.2017, 12:30 1006.1 4.6 90 0.0 W 32 55 Regen
Sonntag, 19.11.2017, 12:00 1006.1 4.7 90 0.5 W 27 53 leichter Regen
Sonntag, 19.11.2017, 11:30 1006.2 4.3 94 0.5 W 28 53 ---
Sonntag, 19.11.2017, 11:00 1006.3 4.5 91 0.1 W 30 52 leichter Regen
Sonntag, 19.11.2017, 10:30 1006.3 5.0 84 0.0 W 31 52 stark bewölkt
Sonntag, 19.11.2017, 10:00 1006.3 4.7 84 0.0 W 31 50 stark bewölkt
Sonntag, 19.11.2017, 09:30 1006.3 4.2 87 0.0 W 31 46 stark bewölkt
Sonntag, 19.11.2017, 09:00 1006.4 3.8 88 0.0 W 26 52 stark bewölkt
Sonntag, 19.11.2017, 08:30 1006.6 3.5 88 0.0 W 27 52 ---
Sonntag, 19.11.2017, 08:00 1006.6 3.3 90 0.0 W 30 46 stark bewölkt
Sonntag, 19.11.2017, 07:30 1006.7 3.2 89 0.0 W 26 45 ---